Bakersfield, California
Current Conditions -  °F | °C
As of 6:54 AM on Monday 22 Dec 2014 (Local Time) from KBFL Reporting Station
Broken Clouds Broken Clouds  
Wind Chill: 53°   Ceiling: 5000
Heat Index: 53°   Visibility: 10mi
Dew Point: 49°   Wind: 5mph
Humidity: 86%   Direction: 80°E
Pressure: 30.23"   Gusts: NA
Location:  35.37°N, 119.01°W
Report Text: KBFL 221454Z 08004KT 10SM BKN050 12/09 A3023 RMK AO2 SLP235 T01170094 55001
Loading
Personal Weather Stations






























Interactive Weather Map New forecast layout! Learn more

10-Day Weather Forecast

Advertisements
Track Severe Weather on mobile